sensor_id;sensor_type;location;lat;lon;timestamp;P1;durP1;ratioP1;P2;durP2;ratioP2
64959;SDS011;51487;52.266;10.542;2023-03-20T00:01:14;5.95;;;4.78;;
64959;SDS011;51487;52.266;10.542;2023-03-20T00:03:41;7.32;;;5.53;;
64959;SDS011;51487;52.266;10.542;2023-03-20T00:06:17;7.50;;;5.55;;
64959;SDS011;51487;52.266;10.542;2023-03-20T00:08:45;5.88;;;4.93;;
64959;SDS011;51487;52.266;10.542;2023-03-20T00:11:33;6.82;;;5.55;;
64959;SDS011;51487;52.266;10.542;2023-03-20T00:16:39;6.40;;;5.00;;
64959;SDS011;51487;52.266;10.542;2023-03-20T00:19:12;7.50;;;5.50;;
64959;SDS011;51487;52.266;10.542;2023-03-20T00:21:41;6.78;;;5.57;;
64959;SDS011;51487;52.266;10.542;2023-03-20T00:24:07;6.78;;;5.47;;
64959;SDS011;51487;52.266;10.542;2023-03-20T00:26:33;6.03;;;5.00;;
64959;SDS011;51487;52.266;10.542;2023-03-20T00:29:00;7.50;;;5.45;;
64959;SDS011;51487;52.266;10.542;2023-03-20T00:31:29;7.47;;;4.72;;
64959;SDS011;51487;52.266;10.542;2023-03-20T00:33:57;6.18;;;5.05;;
64959;SDS011;51487;52.266;10.542;2023-03-20T00:36:24;6.75;;;4.90;;
64959;SDS011;51487;52.266;10.542;2023-03-20T00:38:50;8.20;;;5.65;;
64959;SDS011;51487;52.266;10.542;2023-03-20T00:43:54;5.70;;;4.72;;
64959;SDS011;51487;52.266;10.542;2023-03-20T00:46:23;5.47;;;4.72;;
64959;SDS011;51487;52.266;10.542;2023-03-20T00:48:50;6.00;;;5.25;;
64959;SDS011;51487;52.266;10.542;2023-03-20T00:51:16;5.57;;;4.68;;
64959;SDS011;51487;52.266;10.542;2023-03-20T00:53:41;6.68;;;5.22;;
64959;SDS011;51487;52.266;10.542;2023-03-20T00:56:11;7.05;;;5.05;;
64959;SDS011;51487;52.266;10.542;2023-03-20T00:58:56;4.95;;;4.45;;
64959;SDS011;51487;52.266;10.542;2023-03-20T01:01:22;6.22;;;5.03;;
64959;SDS011;51487;52.266;10.542;2023-03-20T01:03:47;8.95;;;5.13;;
64959;SDS011;51487;52.266;10.542;2023-03-20T01:06:13;6.38;;;5.65;;
64959;SDS011;51487;52.266;10.542;2023-03-20T01:08:38;8.55;;;6.00;;
64959;SDS011;51487;52.266;10.542;2023-03-20T01:11:04;8.55;;;5.85;;
64959;SDS011;51487;52.266;10.542;2023-03-20T01:13:30;8.55;;;6.10;;
64959;SDS011;51487;52.266;10.542;2023-03-20T01:15:57;8.15;;;6.40;;
64959;SDS011;51487;52.266;10.542;2023-03-20T01:18:23;8.70;;;6.93;;
64959;SDS011;51487;52.266;10.542;2023-03-20T01:20:50;8.05;;;6.57;;
64959;SDS011;51487;52.266;10.542;2023-03-20T01:23:19;10.43;;;7.53;;
64959;SDS011;51487;52.266;10.542;2023-03-20T01:25:47;13.82;;;9.13;;
64959;SDS011;51487;52.266;10.542;2023-03-20T01:28:17;10.45;;;8.02;;
64959;SDS011;51487;52.266;10.542;2023-03-20T01:30:45;11.73;;;9.23;;
64959;SDS011;51487;52.266;10.542;2023-03-20T01:33:13;12.45;;;9.35;;
64959;SDS011;51487;52.266;10.542;2023-03-20T01:35:42;14.18;;;10.18;;
64959;SDS011;51487;52.266;10.542;2023-03-20T01:38:12;12.35;;;9.73;;
64959;SDS011;51487;52.266;10.542;2023-03-20T01:40:47;13.75;;;10.05;;
64959;SDS011;51487;52.266;10.542;2023-03-20T01:43:21;12.90;;;10.68;;
64959;SDS011;51487;52.266;10.542;2023-03-20T01:46:09;16.08;;;10.73;;
64959;SDS011;51487;52.266;10.542;2023-03-20T01:49:00;16.10;;;11.32;;
64959;SDS011;51487;52.266;10.542;2023-03-20T01:51:31;15.82;;;12.52;;
64959;SDS011;51487;52.266;10.542;2023-03-20T01:56:41;20.27;;;14.60;;
64959;SDS011;51487;52.266;10.542;2023-03-20T01:59:15;19.58;;;14.60;;
64959;SDS011;51487;52.266;10.542;2023-03-20T02:01:44;21.65;;;15.85;;
64959;SDS011;51487;52.266;10.542;2023-03-20T02:04:10;19.77;;;15.40;;
64959;SDS011;51487;52.266;10.542;2023-03-20T02:06:38;22.58;;;16.90;;
64959;SDS011;51487;52.266;10.542;2023-03-20T02:09:05;21.20;;;16.45;;
64959;SDS011;51487;52.266;10.542;2023-03-20T02:11:32;21.92;;;17.90;;
64959;SDS011;51487;52.266;10.542;2023-03-20T02:13:58;25.52;;;19.42;;
64959;SDS011;51487;52.266;10.542;2023-03-20T02:16:25;24.45;;;18.40;;
64959;SDS011;51487;52.266;10.542;2023-03-20T02:18:51;26.45;;;18.48;;
64959;SDS011;51487;52.266;10.542;2023-03-20T02:33:00;30.58;;;19.00;;
64959;SDS011;51487;52.266;10.542;2023-03-20T02:39:05;32.25;;;20.40;;
64959;SDS011;51487;52.266;10.542;2023-03-20T02:41:47;31.38;;;20.40;;
64959;SDS011;51487;52.266;10.542;2023-03-20T02:44:35;34.35;;;21.73;;
64959;SDS011;51487;52.266;10.542;2023-03-20T02:47:13;34.10;;;21.25;;
64959;SDS011;51487;52.266;10.542;2023-03-20T02:57:58;32.10;;;21.17;;
64959;SDS011;51487;52.266;10.542;2023-03-20T03:00:31;32.28;;;20.48;;
64959;SDS011;51487;52.266;10.542;2023-03-20T03:03:03;30.67;;;20.13;;
64959;SDS011;51487;52.266;10.542;2023-03-20T03:05:36;35.70;;;21.92;;
64959;SDS011;51487;52.266;10.542;2023-03-20T03:08:07;39.38;;;21.33;;
64959;SDS011;51487;52.266;10.542;2023-03-20T03:10:37;36.95;;;20.90;;
64959;SDS011;51487;52.266;10.542;2023-03-20T03:13:09;41.78;;;22.23;;
64959;SDS011;51487;52.266;10.542;2023-03-20T03:15:40;41.20;;;22.97;;
64959;SDS011;51487;52.266;10.542;2023-03-20T03:18:17;44.13;;;24.42;;
64959;SDS011;51487;52.266;10.542;2023-03-20T03:20:44;41.17;;;24.63;;
64959;SDS011;51487;52.266;10.542;2023-03-20T03:23:26;42.30;;;23.95;;
64959;SDS011;51487;52.266;10.542;2023-03-20T03:25:55;45.30;;;23.67;;
64959;SDS011;51487;52.266;10.542;2023-03-20T03:31:04;48.85;;;25.23;;
64959;SDS011;51487;52.266;10.542;2023-03-20T03:33:33;44.03;;;24.02;;
64959;SDS011;51487;52.266;10.542;2023-03-20T03:36:25;48.42;;;24.92;;
64959;SDS011;51487;52.266;10.542;2023-03-20T03:38:58;44.60;;;23.50;;
64959;SDS011;51487;52.266;10.542;2023-03-20T03:41:29;42.35;;;23.40;;
64959;SDS011;51487;52.266;10.542;2023-03-20T03:49:09;46.40;;;25.13;;
64959;SDS011;51487;52.266;10.542;2023-03-20T03:51:40;45.22;;;24.73;;
64959;SDS011;51487;52.266;10.542;2023-03-20T03:54:10;49.63;;;25.90;;
64959;SDS011;51487;52.266;10.542;2023-03-20T03:56:40;44.00;;;25.30;;
64959;SDS011;51487;52.266;10.542;2023-03-20T03:59:10;43.50;;;25.05;;
64959;SDS011;51487;52.266;10.542;2023-03-20T04:01:43;43.17;;;23.50;;
64959;SDS011;51487;52.266;10.542;2023-03-20T04:04:11;50.30;;;23.40;;
64959;SDS011;51487;52.266;10.542;2023-03-20T04:06:39;41.55;;;21.95;;
64959;SDS011;51487;52.266;10.542;2023-03-20T04:09:06;40.95;;;21.60;;
64959;SDS011;51487;52.266;10.542;2023-03-20T04:11:32;37.63;;;21.38;;
64959;SDS011;51487;52.266;10.542;2023-03-20T04:13:59;38.47;;;21.20;;
64959;SDS011;51487;52.266;10.542;2023-03-20T04:16:25;35.90;;;20.63;;
64959;SDS011;51487;52.266;10.542;2023-03-20T04:18:51;34.70;;;19.52;;
64959;SDS011;51487;52.266;10.542;2023-03-20T04:21:16;35.40;;;19.90;;
64959;SDS011;51487;52.266;10.542;2023-03-20T04:23:42;41.05;;;20.15;;
64959;SDS011;51487;52.266;10.542;2023-03-20T04:26:08;37.92;;;19.95;;
64959;SDS011;51487;52.266;10.542;2023-03-20T04:28:33;37.33;;;20.90;;
64959;SDS011;51487;52.266;10.542;2023-03-20T04:30:59;38.05;;;19.60;;
64959;SDS011;51487;52.266;10.542;2023-03-20T04:33:26;40.92;;;19.48;;
64959;SDS011;51487;52.266;10.542;2023-03-20T04:35:52;37.78;;;19.58;;
64959;SDS011;51487;52.266;10.542;2023-03-20T04:38:18;31.02;;;18.70;;
64959;SDS011;51487;52.266;10.542;2023-03-20T04:40:44;36.20;;;18.45;;
64959;SDS011;51487;52.266;10.542;2023-03-20T04:43:11;32.00;;;17.63;;
64959;SDS011;51487;52.266;10.542;2023-03-20T04:45:37;30.00;;;16.98;;
64959;SDS011;51487;52.266;10.542;2023-03-20T04:48:03;31.33;;;18.38;;
64959;SDS011;51487;52.266;10.542;2023-03-20T04:50:28;29.80;;;17.30;;
64959;SDS011;51487;52.266;10.542;2023-03-20T04:52:54;29.73;;;16.52;;
64959;SDS011;51487;52.266;10.542;2023-03-20T04:55:19;31.52;;;16.58;;
64959;SDS011;51487;52.266;10.542;2023-03-20T04:57:46;31.55;;;17.10;;
64959;SDS011;51487;52.266;10.542;2023-03-20T05:00:11;33.05;;;18.55;;
64959;SDS011;51487;52.266;10.542;2023-03-20T05:02:37;34.40;;;18.60;;
64959;SDS011;51487;52.266;10.542;2023-03-20T05:05:03;37.53;;;18.50;;
64959;SDS011;51487;52.266;10.542;2023-03-20T05:07:28;32.83;;;17.58;;
64959;SDS011;51487;52.266;10.542;2023-03-20T05:09:54;33.70;;;18.83;;
64959;SDS011;51487;52.266;10.542;2023-03-20T05:12:19;32.28;;;17.60;;
64959;SDS011;51487;52.266;10.542;2023-03-20T05:14:45;31.35;;;17.08;;
64959;SDS011;51487;52.266;10.542;2023-03-20T05:17:10;27.98;;;17.58;;
64959;SDS011;51487;52.266;10.542;2023-03-20T05:19:36;32.22;;;18.88;;
64959;SDS011;51487;52.266;10.542;2023-03-20T05:22:02;34.13;;;18.73;;
64959;SDS011;51487;52.266;10.542;2023-03-20T05:24:28;30.42;;;17.45;;
64959;SDS011;51487;52.266;10.542;2023-03-20T05:26:53;30.45;;;16.95;;
64959;SDS011;51487;52.266;10.542;2023-03-20T05:29:19;30.77;;;17.98;;
64959;SDS011;51487;52.266;10.542;2023-03-20T05:31:45;39.97;;;18.35;;
64959;SDS011;51487;52.266;10.542;2023-03-20T05:34:10;27.77;;;16.98;;
64959;SDS011;51487;52.266;10.542;2023-03-20T05:36:36;31.83;;;17.77;;
64959;SDS011;51487;52.266;10.542;2023-03-20T05:39:01;33.33;;;17.33;;
64959;SDS011;51487;52.266;10.542;2023-03-20T05:41:27;28.85;;;17.85;;
64959;SDS011;51487;52.266;10.542;2023-03-20T05:43:52;30.10;;;17.55;;
64959;SDS011;51487;52.266;10.542;2023-03-20T05:46:18;30.45;;;17.70;;
64959;SDS011;51487;52.266;10.542;2023-03-20T05:48:43;29.23;;;18.35;;
64959;SDS011;51487;52.266;10.542;2023-03-20T05:51:08;33.10;;;18.23;;
64959;SDS011;51487;52.266;10.542;2023-03-20T05:53:34;28.35;;;17.02;;
64959;SDS011;51487;52.266;10.542;2023-03-20T05:56:00;29.08;;;16.20;;
64959;SDS011;51487;52.266;10.542;2023-03-20T05:58:25;30.08;;;16.88;;
64959;SDS011;51487;52.266;10.542;2023-03-20T06:00:50;26.80;;;16.02;;
64959;SDS011;51487;52.266;10.542;2023-03-20T06:03:16;26.55;;;15.45;;
64959;SDS011;51487;52.266;10.542;2023-03-20T06:05:42;26.88;;;15.25;;
64959;SDS011;51487;52.266;10.542;2023-03-20T06:08:08;23.13;;;15.25;;
64959;SDS011;51487;52.266;10.542;2023-03-20T06:10:33;25.08;;;14.90;;
64959;SDS011;51487;52.266;10.542;2023-03-20T06:12:59;22.30;;;13.98;;
64959;SDS011;51487;52.266;10.542;2023-03-20T06:15:25;26.02;;;15.65;;
64959;SDS011;51487;52.266;10.542;2023-03-20T06:17:52;23.20;;;14.77;;
64959;SDS011;51487;52.266;10.542;2023-03-20T06:20:18;25.85;;;15.35;;
64959;SDS011;51487;52.266;10.542;2023-03-20T06:22:44;24.90;;;15.45;;
64959;SDS011;51487;52.266;10.542;2023-03-20T06:25:09;24.35;;;16.33;;
64959;SDS011;51487;52.266;10.542;2023-03-20T06:27:34;25.85;;;15.27;;
64959;SDS011;51487;52.266;10.542;2023-03-20T06:30:00;22.73;;;14.30;;
64959;SDS011;51487;52.266;10.542;2023-03-20T06:32:26;25.20;;;15.68;;
64959;SDS011;51487;52.266;10.542;2023-03-20T06:34:51;28.95;;;14.75;;
64959;SDS011;51487;52.266;10.542;2023-03-20T06:37:17;24.08;;;14.73;;
64959;SDS011;51487;52.266;10.542;2023-03-20T06:39:43;24.13;;;15.13;;
64959;SDS011;51487;52.266;10.542;2023-03-20T06:42:09;26.10;;;14.80;;
64959;SDS011;51487;52.266;10.542;2023-03-20T06:44:34;22.45;;;14.93;;
64959;SDS011;51487;52.266;10.542;2023-03-20T06:47:00;21.98;;;14.68;;
64959;SDS011;51487;52.266;10.542;2023-03-20T06:49:25;23.52;;;14.18;;
64959;SDS011;51487;52.266;10.542;2023-03-20T06:51:51;21.88;;;14.45;;
64959;SDS011;51487;52.266;10.542;2023-03-20T06:54:17;24.55;;;15.07;;
64959;SDS011;51487;52.266;10.542;2023-03-20T06:56:43;24.67;;;15.57;;
64959;SDS011;51487;52.266;10.542;2023-03-20T06:59:08;26.85;;;16.70;;
64959;SDS011;51487;52.266;10.542;2023-03-20T07:01:34;24.08;;;15.63;;
64959;SDS011;51487;52.266;10.542;2023-03-20T07:03:59;26.63;;;15.68;;
64959;SDS011;51487;52.266;10.542;2023-03-20T07:06:25;27.25;;;15.13;;
64959;SDS011;51487;52.266;10.542;2023-03-20T07:08:52;25.50;;;15.00;;
64959;SDS011;51487;52.266;10.542;2023-03-20T07:11:17;24.80;;;15.13;;
64959;SDS011;51487;52.266;10.542;2023-03-20T07:13:43;26.95;;;16.27;;
64959;SDS011;51487;52.266;10.542;2023-03-20T07:16:08;25.50;;;15.25;;
64959;SDS011;51487;52.266;10.542;2023-03-20T07:18:34;23.25;;;14.75;;
64959;SDS011;51487;52.266;10.542;2023-03-20T07:21:00;25.73;;;15.68;;
64959;SDS011;51487;52.266;10.542;2023-03-20T07:23:28;22.80;;;14.45;;
64959;SDS011;51487;52.266;10.542;2023-03-20T07:25:53;29.30;;;15.85;;
64959;SDS011;51487;52.266;10.542;2023-03-20T07:28:19;25.58;;;14.90;;
64959;SDS011;51487;52.266;10.542;2023-03-20T07:30:44;26.27;;;15.65;;
64959;SDS011;51487;52.266;10.542;2023-03-20T07:33:10;27.60;;;16.48;;
64959;SDS011;51487;52.266;10.542;2023-03-20T07:35:35;24.50;;;15.50;;
64959;SDS011;51487;52.266;10.542;2023-03-20T07:38:01;24.23;;;15.45;;
64959;SDS011;51487;52.266;10.542;2023-03-20T07:40:26;26.77;;;15.27;;
64959;SDS011;51487;52.266;10.542;2023-03-20T07:42:52;27.23;;;16.00;;
64959;SDS011;51487;52.266;10.542;2023-03-20T07:45:17;29.25;;;16.52;;
64959;SDS011;51487;52.266;10.542;2023-03-20T07:47:43;24.50;;;15.75;;
64959;SDS011;51487;52.266;10.542;2023-03-20T07:50:09;26.85;;;16.33;;
64959;SDS011;51487;52.266;10.542;2023-03-20T07:52:35;27.33;;;15.45;;
64959;SDS011;51487;52.266;10.542;2023-03-20T07:55:00;30.23;;;16.50;;
64959;SDS011;51487;52.266;10.542;2023-03-20T07:57:25;27.98;;;16.45;;
64959;SDS011;51487;52.266;10.542;2023-03-20T07:59:51;27.25;;;16.27;;
64959;SDS011;51487;52.266;10.542;2023-03-20T08:02:17;28.50;;;16.25;;
64959;SDS011;51487;52.266;10.542;2023-03-20T08:04:43;27.25;;;16.10;;
64959;SDS011;51487;52.266;10.542;2023-03-20T08:07:08;28.45;;;15.93;;
64959;SDS011;51487;52.266;10.542;2023-03-20T08:09:35;28.65;;;16.05;;
64959;SDS011;51487;52.266;10.542;2023-03-20T08:12:00;29.50;;;16.05;;
64959;SDS011;51487;52.266;10.542;2023-03-20T08:14:26;28.85;;;16.20;;
64959;SDS011;51487;52.266;10.542;2023-03-20T08:16:51;26.25;;;15.88;;
64959;SDS011;51487;52.266;10.542;2023-03-20T08:19:17;25.85;;;15.95;;
64959;SDS011;51487;52.266;10.542;2023-03-20T08:21:42;28.20;;;16.02;;
64959;SDS011;51487;52.266;10.542;2023-03-20T08:24:08;27.52;;;15.88;;
64959;SDS011;51487;52.266;10.542;2023-03-20T08:26:33;28.35;;;16.52;;
64959;SDS011;51487;52.266;10.542;2023-03-20T08:28:58;25.92;;;16.35;;
64959;SDS011;51487;52.266;10.542;2023-03-20T08:31:24;30.95;;;16.67;;
64959;SDS011;51487;52.266;10.542;2023-03-20T08:33:50;33.97;;;17.80;;
64959;SDS011;51487;52.266;10.542;2023-03-20T08:36:16;31.40;;;17.05;;
64959;SDS011;51487;52.266;10.542;2023-03-20T08:38:44;30.20;;;17.73;;
64959;SDS011;51487;52.266;10.542;2023-03-20T08:41:10;30.02;;;17.13;;
64959;SDS011;51487;52.266;10.542;2023-03-20T08:43:36;29.75;;;17.42;;
64959;SDS011;51487;52.266;10.542;2023-03-20T08:46:02;28.52;;;16.52;;
64959;SDS011;51487;52.266;10.542;2023-03-20T08:48:28;30.90;;;18.17;;
64959;SDS011;51487;52.266;10.542;2023-03-20T08:50:53;26.92;;;16.92;;
64959;SDS011;51487;52.266;10.542;2023-03-20T08:53:19;23.42;;;15.32;;
64959;SDS011;51487;52.266;10.542;2023-03-20T08:55:48;28.40;;;17.52;;
64959;SDS011;51487;52.266;10.542;2023-03-20T08:58:14;30.95;;;17.90;;
64959;SDS011;51487;52.266;10.542;2023-03-20T09:00:40;25.60;;;16.77;;
64959;SDS011;51487;52.266;10.542;2023-03-20T09:03:06;23.48;;;16.77;;
64959;SDS011;51487;52.266;10.542;2023-03-20T09:05:31;23.27;;;15.18;;
64959;SDS011;51487;52.266;10.542;2023-03-20T09:07:57;23.52;;;16.25;;
64959;SDS011;51487;52.266;10.542;2023-03-20T09:10:24;23.90;;;16.40;;
64959;SDS011;51487;52.266;10.542;2023-03-20T09:12:49;25.55;;;16.08;;
64959;SDS011;51487;52.266;10.542;2023-03-20T09:15:15;23.15;;;15.82;;
64959;SDS011;51487;52.266;10.542;2023-03-20T09:17:40;22.77;;;15.70;;
64959;SDS011;51487;52.266;10.542;2023-03-20T09:20:05;21.15;;;15.30;;
64959;SDS011;51487;52.266;10.542;2023-03-20T09:22:32;18.67;;;13.70;;
64959;SDS011;51487;52.266;10.542;2023-03-20T09:24:57;23.15;;;15.77;;
64959;SDS011;51487;52.266;10.542;2023-03-20T09:27:23;18.67;;;14.35;;
64959;SDS011;51487;52.266;10.542;2023-03-20T09:29:48;21.02;;;14.32;;
64959;SDS011;51487;52.266;10.542;2023-03-20T09:32:14;25.52;;;15.98;;
64959;SDS011;51487;52.266;10.542;2023-03-20T09:34:39;22.73;;;14.88;;
64959;SDS011;51487;52.266;10.542;2023-03-20T09:37:05;24.05;;;15.88;;
64959;SDS011;51487;52.266;10.542;2023-03-20T09:39:31;20.58;;;14.38;;
64959;SDS011;51487;52.266;10.542;2023-03-20T09:41:58;24.05;;;15.25;;
64959;SDS011;51487;52.266;10.542;2023-03-20T09:44:47;22.23;;;15.32;;
64959;SDS011;51487;52.266;10.542;2023-03-20T09:47:32;22.00;;;14.95;;
64959;SDS011;51487;52.266;10.542;2023-03-20T09:52:56;21.05;;;14.85;;
64959;SDS011;51487;52.266;10.542;2023-03-20T09:55:24;23.23;;;14.98;;
64959;SDS011;51487;52.266;10.542;2023-03-20T09:57:59;19.85;;;14.48;;
64959;SDS011;51487;52.266;10.542;2023-03-20T10:00:30;25.45;;;15.52;;
64959;SDS011;51487;52.266;10.542;2023-03-20T10:02:59;23.45;;;16.27;;
64959;SDS011;51487;52.266;10.542;2023-03-20T10:07:59;22.92;;;15.93;;
64959;SDS011;51487;52.266;10.542;2023-03-20T10:19:15;23.90;;;16.80;;
64959;SDS011;51487;52.266;10.542;2023-03-20T10:21:45;26.88;;;17.00;;
64959;SDS011;51487;52.266;10.542;2023-03-20T10:24:18;24.73;;;16.52;;
64959;SDS011;51487;52.266;10.542;2023-03-20T10:26:52;22.85;;;16.25;;
64959;SDS011;51487;52.266;10.542;2023-03-20T10:32:24;22.67;;;15.00;;
64959;SDS011;51487;52.266;10.542;2023-03-20T10:35:15;21.30;;;14.77;;
64959;SDS011;51487;52.266;10.542;2023-03-20T10:37:51;21.25;;;15.40;;
64959;SDS011;51487;52.266;10.542;2023-03-20T10:40:22;20.90;;;14.57;;
64959;SDS011;51487;52.266;10.542;2023-03-20T10:42:51;21.20;;;13.48;;
64959;SDS011;51487;52.266;10.542;2023-03-20T10:45:24;18.33;;;14.05;;
64959;SDS011;51487;52.266;10.542;2023-03-20T10:47:58;20.58;;;15.18;;
64959;SDS011;51487;52.266;10.542;2023-03-20T10:50:31;24.02;;;14.98;;
64959;SDS011;51487;52.266;10.542;2023-03-20T10:53:01;20.98;;;14.77;;
64959;SDS011;51487;52.266;10.542;2023-03-20T10:55:30;20.20;;;14.20;;
64959;SDS011;51487;52.266;10.542;2023-03-20T10:58:15;19.77;;;14.07;;
64959;SDS011;51487;52.266;10.542;2023-03-20T11:00:45;20.35;;;13.20;;
64959;SDS011;51487;52.266;10.542;2023-03-20T11:03:24;19.08;;;13.70;;
64959;SDS011;51487;52.266;10.542;2023-03-20T11:05:53;20.30;;;14.15;;
64959;SDS011;51487;52.266;10.542;2023-03-20T11:08:30;19.58;;;14.00;;
64959;SDS011;51487;52.266;10.542;2023-03-20T11:11:01;20.42;;;14.73;;
64959;SDS011;51487;52.266;10.542;2023-03-20T11:15:53;21.30;;;15.77;;
64959;SDS011;51487;52.266;10.542;2023-03-20T11:18:19;24.17;;;17.13;;
64959;SDS011;51487;52.266;10.542;2023-03-20T11:20:51;26.98;;;18.10;;
64959;SDS011;51487;52.266;10.542;2023-03-20T11:23:23;26.23;;;19.23;;
64959;SDS011;51487;52.266;10.542;2023-03-20T11:25:52;27.85;;;18.15;;
64959;SDS011;51487;52.266;10.542;2023-03-20T11:28:29;27.27;;;18.65;;
64959;SDS011;51487;52.266;10.542;2023-03-20T11:33:38;29.45;;;19.48;;
64959;SDS011;51487;52.266;10.542;2023-03-20T11:36:11;24.85;;;18.63;;
64959;SDS011;51487;52.266;10.542;2023-03-20T11:38:44;25.95;;;19.60;;
64959;SDS011;51487;52.266;10.542;2023-03-20T11:41:16;26.27;;;19.08;;
64959;SDS011;51487;52.266;10.542;2023-03-20T11:43:52;26.52;;;18.95;;
64959;SDS011;51487;52.266;10.542;2023-03-20T11:46:18;22.77;;;18.88;;
64959;SDS011;51487;52.266;10.542;2023-03-20T11:48:47;20.35;;;16.40;;
64959;SDS011;51487;52.266;10.542;2023-03-20T11:51:26;17.83;;;13.88;;
64959;SDS011;51487;52.266;10.542;2023-03-20T11:54:14;17.00;;;14.00;;
64959;SDS011;51487;52.266;10.542;2023-03-20T11:56:52;16.03;;;12.67;;
64959;SDS011;51487;52.266;10.542;2023-03-20T11:59:19;16.08;;;12.57;;
64959;SDS011;51487;52.266;10.542;2023-03-20T12:01:47;13.93;;;11.38;;
64959;SDS011;51487;52.266;10.542;2023-03-20T12:04:19;14.50;;;11.77;;
64959;SDS011;51487;52.266;10.542;2023-03-20T12:06:56;12.55;;;10.98;;
64959;SDS011;51487;52.266;10.542;2023-03-20T12:25:24;12.90;;;10.55;;
64959;SDS011;51487;52.266;10.542;2023-03-20T12:28:00;13.15;;;10.30;;
64959;SDS011;51487;52.266;10.542;2023-03-20T12:30:31;14.18;;;10.73;;
64959;SDS011;51487;52.266;10.542;2023-03-20T12:33:06;10.73;;;9.63;;
64959;SDS011;51487;52.266;10.542;2023-03-20T12:35:40;10.43;;;9.25;;
64959;SDS011;51487;52.266;10.542;2023-03-20T12:38:17;10.23;;;8.97;;
64959;SDS011;51487;52.266;10.542;2023-03-20T12:40:49;11.60;;;8.82;;
64959;SDS011;51487;52.266;10.542;2023-03-20T12:43:24;10.23;;;8.75;;
64959;SDS011;51487;52.266;10.542;2023-03-20T12:48:54;12.30;;;8.57;;
64959;SDS011;51487;52.266;10.542;2023-03-20T12:51:38;10.00;;;8.40;;
64959;SDS011;51487;52.266;10.542;2023-03-20T12:54:14;11.88;;;8.40;;
64959;SDS011;51487;52.266;10.542;2023-03-20T12:59:21;11.07;;;8.10;;
64959;SDS011;51487;52.266;10.542;2023-03-20T13:02:12;9.93;;;8.60;;
64959;SDS011;51487;52.266;10.542;2023-03-20T13:04:55;9.77;;;8.02;;
64959;SDS011;51487;52.266;10.542;2023-03-20T13:10:35;11.52;;;9.55;;
64959;SDS011;51487;52.266;10.542;2023-03-20T13:19:33;9.68;;;8.30;;
64959;SDS011;51487;52.266;10.542;2023-03-20T13:27:14;10.45;;;8.43;;
64959;SDS011;51487;52.266;10.542;2023-03-20T13:32:56;11.32;;;8.15;;
64959;SDS011;51487;52.266;10.542;2023-03-20T13:38:29;9.63;;;8.45;;
64959;SDS011;51487;52.266;10.542;2023-03-20T13:41:01;10.85;;;8.40;;
64959;SDS011;51487;52.266;10.542;2023-03-20T13:46:09;12.15;;;8.80;;
64959;SDS011;51487;52.266;10.542;2023-03-20T13:48:38;9.82;;;8.40;;
64959;SDS011;51487;52.266;10.542;2023-03-20T14:04:41;10.20;;;7.65;;
64959;SDS011;51487;52.266;10.542;2023-03-20T14:07:26;9.68;;;7.28;;
64959;SDS011;51487;52.266;10.542;2023-03-20T14:09:53;8.93;;;7.30;;
64959;SDS011;51487;52.266;10.542;2023-03-20T14:12:19;10.40;;;7.63;;
64959;SDS011;51487;52.266;10.542;2023-03-20T14:14:52;8.85;;;7.47;;
64959;SDS011;51487;52.266;10.542;2023-03-20T14:17:24;10.63;;;6.93;;
64959;SDS011;51487;52.266;10.542;2023-03-20T14:19:51;8.57;;;7.68;;
64959;SDS011;51487;52.266;10.542;2023-03-20T14:22:19;8.77;;;7.20;;
64959;SDS011;51487;52.266;10.542;2023-03-20T14:24:54;8.85;;;7.40;;
64959;SDS011;51487;52.266;10.542;2023-03-20T14:27:23;9.82;;;7.20;;
64959;SDS011;51487;52.266;10.542;2023-03-20T14:29:54;8.80;;;7.38;;
64959;SDS011;51487;52.266;10.542;2023-03-20T14:32:21;10.40;;;6.88;;
64959;SDS011;51487;52.266;10.542;2023-03-20T14:37:59;7.88;;;5.15;;
64959;SDS011;51487;52.266;10.542;2023-03-20T14:40:35;8.32;;;5.47;;
64959;SDS011;51487;52.266;10.542;2023-03-20T14:46:02;8.38;;;5.38;;
64959;SDS011;51487;52.266;10.542;2023-03-20T14:48:34;7.88;;;5.50;;
64959;SDS011;51487;52.266;10.542;2023-03-20T14:51:16;7.20;;;5.15;;
64959;SDS011;51487;52.266;10.542;2023-03-20T14:56:46;7.10;;;5.43;;
64959;SDS011;51487;52.266;10.542;2023-03-20T14:59:13;6.70;;;5.15;;
64959;SDS011;51487;52.266;10.542;2023-03-20T15:01:44;6.63;;;5.20;;
64959;SDS011;51487;52.266;10.542;2023-03-20T15:04:21;6.22;;;5.35;;
64959;SDS011;51487;52.266;10.542;2023-03-20T15:06:55;7.43;;;5.40;;
64959;SDS011;51487;52.266;10.542;2023-03-20T15:09:25;9.85;;;5.40;;
64959;SDS011;51487;52.266;10.542;2023-03-20T15:11:53;6.50;;;5.43;;
64959;SDS011;51487;52.266;10.542;2023-03-20T15:14:27;10.20;;;6.43;;
64959;SDS011;51487;52.266;10.542;2023-03-20T15:16:58;7.07;;;6.22;;
64959;SDS011;51487;52.266;10.542;2023-03-20T15:19:25;8.38;;;6.05;;
64959;SDS011;51487;52.266;10.542;2023-03-20T15:21:52;7.00;;;5.55;;
64959;SDS011;51487;52.266;10.542;2023-03-20T15:24:22;8.52;;;5.60;;
64959;SDS011;51487;52.266;10.542;2023-03-20T15:26:50;7.78;;;5.82;;
64959;SDS011;51487;52.266;10.542;2023-03-20T15:29:18;9.52;;;6.05;;
64959;SDS011;51487;52.266;10.542;2023-03-20T15:31:44;9.52;;;5.78;;
64959;SDS011;51487;52.266;10.542;2023-03-20T15:34:17;7.25;;;5.43;;
64959;SDS011;51487;52.266;10.542;2023-03-20T15:36:46;7.50;;;5.60;;
64959;SDS011;51487;52.266;10.542;2023-03-20T15:39:16;10.00;;;6.10;;
64959;SDS011;51487;52.266;10.542;2023-03-20T15:41:45;8.07;;;5.70;;
64959;SDS011;51487;52.266;10.542;2023-03-20T15:49:19;8.60;;;6.45;;
64959;SDS011;51487;52.266;10.542;2023-03-20T15:51:47;11.77;;;5.82;;
64959;SDS011;51487;52.266;10.542;2023-03-20T15:54:14;8.25;;;5.85;;
64959;SDS011;51487;52.266;10.542;2023-03-20T15:56:42;6.70;;;5.68;;
64959;SDS011;51487;52.266;10.542;2023-03-20T15:59:14;9.27;;;6.38;;
64959;SDS011;51487;52.266;10.542;2023-03-20T16:01:42;9.90;;;6.57;;
64959;SDS011;51487;52.266;10.542;2023-03-20T16:04:08;9.65;;;6.70;;
64959;SDS011;51487;52.266;10.542;2023-03-20T16:06:43;9.77;;;7.28;;
64959;SDS011;51487;52.266;10.542;2023-03-20T16:09:13;9.40;;;7.00;;
64959;SDS011;51487;52.266;10.542;2023-03-20T16:11:42;9.07;;;7.32;;
64959;SDS011;51487;52.266;10.542;2023-03-20T16:14:20;10.15;;;7.93;;
64959;SDS011;51487;52.266;10.542;2023-03-20T16:16:50;10.70;;;7.40;;
64959;SDS011;51487;52.266;10.542;2023-03-20T16:19:18;8.40;;;6.80;;
64959;SDS011;51487;52.266;10.542;2023-03-20T16:22:08;8.60;;;7.05;;
64959;SDS011;51487;52.266;10.542;2023-03-20T16:24:56;10.25;;;7.32;;
64959;SDS011;51487;52.266;10.542;2023-03-20T16:27:34;9.70;;;7.78;;
64959;SDS011;51487;52.266;10.542;2023-03-20T16:30:04;11.63;;;7.88;;
64959;SDS011;51487;52.266;10.542;2023-03-20T16:35:02;11.25;;;7.70;;
64959;SDS011;51487;52.266;10.542;2023-03-20T16:37:36;10.70;;;7.68;;
64959;SDS011;51487;52.266;10.542;2023-03-20T16:42:42;10.95;;;7.63;;
64959;SDS011;51487;52.266;10.542;2023-03-20T16:48:42;10.07;;;7.85;;
64959;SDS011;51487;52.266;10.542;2023-03-20T16:50:46;12.35;;;8.35;;